createdAt,value
2019-05-12T00:01:51.565Z,5.13
2019-05-12T00:04:23.297Z,4.67
2019-05-12T00:06:55.033Z,4.20
2019-05-12T00:09:28.289Z,5.37
2019-05-12T00:12:00.084Z,4.67
2019-05-12T00:14:31.921Z,5.00
2019-05-12T00:17:03.647Z,5.00
2019-05-12T00:19:37.656Z,5.07
2019-05-12T00:22:11.279Z,4.13
2019-05-12T00:24:47.767Z,4.23
2019-05-12T00:27:23.258Z,4.47
2019-05-12T00:29:54.994Z,4.40
2019-05-12T00:32:28.224Z,4.50
2019-05-12T00:35:00.045Z,4.40
2019-05-12T00:37:31.873Z,3.97
2019-05-12T00:40:04.096Z,5.03
2019-05-12T00:42:38.054Z,4.80
2019-05-12T00:45:09.798Z,5.30
2019-05-12T00:47:41.629Z,5.30
2019-05-12T00:50:13.756Z,5.03
2019-05-12T00:52:45.514Z,4.50
2019-05-12T00:55:18.396Z,4.50
2019-05-12T00:57:50.251Z,3.77
2019-05-12T01:00:22.940Z,4.13
2019-05-12T01:02:54.669Z,4.67
2019-05-12T01:05:26.399Z,3.63
2019-05-12T01:07:58.539Z,4.20
2019-05-12T01:10:31.437Z,4.10
2019-05-12T01:13:04.764Z,3.60
2019-05-12T01:15:37.786Z,4.23
2019-05-12T01:18:09.914Z,3.57
2019-05-12T01:20:41.854Z,4.63
2019-05-12T01:23:14.823Z,4.30
2019-05-12T01:25:50.598Z,4.63
2019-05-12T01:28:22.458Z,4.00
2019-05-12T01:30:58.063Z,4.27
2019-05-12T01:33:29.250Z,2.67
2019-05-12T01:36:02.225Z,4.10
2019-05-12T01:38:34.040Z,4.07
2019-05-12T01:41:05.767Z,3.80
2019-05-12T01:43:38.230Z,4.77
2019-05-12T01:46:11.231Z,4.30
2019-05-12T01:48:42.872Z,4.20
2019-05-12T01:51:17.879Z,3.77
2019-05-12T01:53:49.772Z,4.00
2019-05-12T01:56:21.494Z,3.60
2019-05-12T01:58:53.324Z,3.90
2019-05-12T02:01:25.043Z,3.17
2019-05-12T02:03:58.545Z,3.17
2019-05-12T02:06:30.102Z,3.80
2019-05-12T02:09:03.471Z,3.80
2019-05-12T02:11:35.153Z,3.17
2019-05-12T02:14:09.242Z,3.00
2019-05-12T02:16:40.837Z,3.87
2019-05-12T02:19:12.577Z,3.00
2019-05-12T02:21:44.299Z,3.53
2019-05-12T02:24:24.272Z,3.47
2019-05-12T02:26:49.442Z,3.57
2019-05-12T02:29:21.162Z,3.70
2019-05-12T02:31:52.891Z,2.97
2019-05-12T02:34:25.580Z,3.33
2019-05-12T02:36:57.310Z,4.33
2019-05-12T02:39:29.147Z,3.87
2019-05-12T02:42:00.869Z,3.37
2019-05-12T02:44:34.652Z,3.53
2019-05-12T02:47:06.132Z,3.00
2019-05-12T02:49:37.814Z,3.50
2019-05-12T02:52:10.000Z,2.90
2019-05-12T02:54:51.895Z,2.37
2019-05-12T02:57:17.451Z,3.27
2019-05-12T02:59:50.220Z,3.40
2019-05-12T03:02:24.706Z,3.53
2019-05-12T03:04:59.555Z,3.20
2019-05-12T03:07:34.577Z,4.10
2019-05-12T03:10:14.618Z,3.70
2019-05-12T03:12:46.510Z,3.60
2019-05-12T03:15:18.352Z,3.03
2019-05-12T03:17:50.079Z,2.60
2019-05-12T03:20:24.221Z,4.03
2019-05-12T03:22:55.529Z,4.30
2019-05-12T03:25:30.127Z,3.60
2019-05-12T03:28:00.745Z,4.00
2019-05-12T03:30:38.191Z,3.80
2019-05-12T03:33:09.138Z,3.90
2019-05-12T03:35:43.469Z,4.10
2019-05-12T03:38:15.001Z,4.10
2019-05-12T03:40:47.010Z,3.77
2019-05-12T03:43:18.750Z,3.90
2019-05-12T03:45:50.489Z,3.10
2019-05-12T03:48:25.077Z,3.97
2019-05-12T03:50:55.562Z,3.63
2019-05-12T03:53:27.298Z,3.70
2019-05-12T03:55:59.029Z,3.90
2019-05-12T03:58:30.850Z,3.50
2019-05-12T04:01:04.597Z,3.60
2019-05-12T04:03:35.895Z,2.93
2019-05-12T04:06:07.626Z,2.50
2019-05-12T04:08:39.915Z,3.33
2019-05-12T04:11:14.497Z,2.50
2019-05-12T04:13:45.454Z,3.50
2019-05-12T04:16:19.990Z,4.67
2019-05-12T04:18:54.927Z,3.63
2019-05-12T04:21:25.041Z,3.90
2019-05-12T04:23:56.682Z,3.67
2019-05-12T04:26:30.049Z,3.90
2019-05-12T04:29:04.839Z,3.87
2019-05-12T04:31:37.170Z,3.43
2019-05-12T04:34:10.075Z,3.63
2019-05-12T04:36:44.873Z,3.60
2019-05-12T04:39:15.585Z,4.53
2019-05-12T04:41:48.163Z,4.33
2019-05-12T04:44:20.005Z,3.97
2019-05-12T04:46:55.151Z,3.37
2019-05-12T04:49:25.346Z,3.87
2019-05-12T04:51:57.979Z,3.87
2019-05-12T04:54:30.726Z,3.37
2019-05-12T04:57:04.149Z,3.17
2019-05-12T04:59:35.799Z,4.07
2019-05-12T05:02:07.513Z,2.87
2019-05-12T05:04:39.251Z,3.80
2019-05-12T05:07:10.984Z,4.47
2019-05-12T05:09:44.290Z,3.47
2019-05-12T05:12:16.325Z,3.50
2019-05-12T05:14:48.163Z,3.60
2019-05-12T05:17:24.574Z,3.57
2019-05-12T05:19:58.031Z,3.33
2019-05-12T05:22:29.852Z,3.00
2019-05-12T05:25:04.113Z,3.27
2019-05-12T05:27:34.925Z,3.60
2019-05-12T05:30:10.933Z,3.60
2019-05-12T05:32:44.488Z,2.07
2019-05-12T05:35:15.994Z,2.80
2019-05-12T05:37:47.832Z,2.77
2019-05-12T05:40:19.930Z,2.10
2019-05-12T05:42:54.309Z,2.87
2019-05-12T05:45:26.593Z,2.83
2019-05-12T05:47:59.549Z,1.73
2019-05-12T05:50:33.870Z,2.80
2019-05-12T05:53:12.429Z,3.43
2019-05-12T05:55:39.031Z,2.77
2019-05-12T05:58:10.759Z,3.30
2019-05-12T06:00:43.614Z,3.63
2019-05-12T06:03:22.909Z,2.70
2019-05-12T06:05:48.781Z,2.93
2019-05-12T06:33:31.319Z,5.23
2019-05-12T06:35:59.794Z,7.00
2019-05-12T12:59:56.238Z,4.27
2019-05-12T13:02:28.231Z,5.13
2019-05-12T13:04:59.791Z,3.60
2019-05-12T13:07:33.436Z,4.90
2019-05-12T13:10:09.508Z,3.53
2019-05-12T13:12:40.381Z,4.03
2019-05-12T13:15:14.588Z,3.50
2019-05-12T13:17:51.019Z,4.80
2019-05-12T13:20:23.851Z,4.03
2019-05-12T13:22:58.059Z,3.57
2019-05-12T13:25:29.934Z,3.77
2019-05-12T13:28:10.068Z,3.33
2019-05-12T13:30:45.545Z,2.83
2019-05-12T13:33:14.844Z,3.30
2019-05-12T13:35:50.326Z,3.30
2019-05-12T13:38:19.228Z,2.47
2019-05-12T13:40:51.078Z,2.60
2019-05-12T13:43:23.715Z,3.73
2019-05-12T13:45:55.767Z,2.90
2019-05-12T13:48:29.086Z,2.37
2019-05-12T13:51:12.132Z,3.00
2019-05-12T13:53:40.503Z,3.37
2019-05-12T13:56:13.699Z,3.27
2019-05-12T13:58:47.260Z,3.93
2019-05-12T14:01:21.049Z,4.17
2019-05-12T14:03:53.571Z,6.23
2019-05-12T14:06:31.842Z,8.10
2019-05-12T14:09:01.112Z,10.10
2019-05-12T14:11:34.599Z,5.67
2019-05-12T14:14:11.523Z,3.00
2019-05-12T14:16:44.536Z,6.40
2019-05-12T14:19:17.750Z,4.13
2019-05-12T14:21:54.137Z,2.63
2019-05-12T14:24:26.323Z,4.57
2019-05-12T14:26:58.008Z,4.67
2019-05-12T14:29:30.749Z,1.83
2019-05-12T14:32:05.319Z,8.70
2019-05-12T14:34:36.545Z,2.80
2019-05-12T14:37:13.621Z,3.30
2019-05-12T14:39:50.130Z,2.27
2019-05-12T14:42:19.518Z,3.93
2019-05-12T14:44:54.083Z,2.20
2019-05-12T14:47:30.093Z,5.20
2019-05-12T14:50:03.783Z,7.50
2019-05-12T14:52:34.547Z,4.83
2019-05-12T14:55:08.710Z,8.57
2019-05-12T14:57:42.175Z,9.27
2019-05-12T15:00:21.890Z,3.50
2019-05-12T15:02:54.047Z,5.27
2019-05-12T15:05:27.707Z,3.10
2019-05-12T15:08:00.889Z,2.53
2019-05-12T15:10:36.372Z,8.00
2019-05-12T15:13:09.940Z,3.90
2019-05-12T15:15:43.941Z,4.90
2019-05-12T15:18:16.780Z,7.23
2019-05-12T15:20:51.355Z,3.77
2019-05-12T15:23:32.652Z,2.10
2019-05-12T15:25:58.063Z,2.93
2019-05-12T15:28:33.800Z,2.60
2019-05-12T15:31:05.872Z,2.60
2019-05-12T15:33:37.618Z,4.60
2019-05-12T15:36:09.758Z,3.90
2019-05-12T15:38:43.734Z,2.50
2019-05-12T15:41:20.061Z,2.77
2019-05-12T15:43:53.662Z,2.70
2019-05-12T15:46:26.517Z,2.53
2019-05-12T15:48:58.381Z,6.30
2019-05-12T15:51:30.336Z,6.10
2019-05-12T15:54:06.247Z,7.83
2019-05-12T15:56:35.468Z,2.17
2019-05-12T15:59:09.924Z,4.67
2019-05-12T16:01:43.809Z,4.17
2019-05-12T16:04:15.462Z,5.07
2019-05-12T16:06:53.176Z,21.83
2019-05-12T16:09:23.792Z,13.43
2019-05-12T16:11:55.273Z,25.77
2019-05-12T16:14:33.937Z,23.73
2019-05-12T16:17:06.296Z,14.17
2019-05-12T16:19:37.242Z,9.70
2019-05-12T16:22:08.990Z,16.03
2019-05-12T16:24:43.525Z,48.40
2019-05-12T16:27:14.570Z,24.30
2019-05-12T16:29:49.934Z,16.80
2019-05-12T16:32:27.266Z,9.57
2019-05-12T16:34:57.657Z,9.63
2019-05-12T16:37:31.099Z,13.03
2019-05-12T16:40:04.470Z,12.00
2019-05-12T16:42:40.800Z,11.47
2019-05-12T16:45:10.703Z,4.87
2019-05-12T16:47:44.724Z,4.53
2019-05-12T16:50:24.475Z,4.77
2019-05-12T16:52:49.965Z,2.50
2019-05-12T16:55:23.647Z,3.70
2019-05-12T16:57:56.264Z,9.67
2019-05-12T17:00:34.022Z,3.33
2019-05-12T17:03:09.003Z,8.70
2019-05-12T17:05:43.962Z,8.27
2019-05-12T17:08:16.721Z,21.00
2019-05-12T17:11:01.059Z,15.67
2019-05-12T17:13:34.019Z,21.20
2019-05-12T17:16:13.875Z,21.03
2019-05-12T17:18:48.387Z,10.53
2019-05-12T17:21:24.621Z,8.60
2019-05-12T17:23:57.459Z,8.03
2019-05-12T17:26:29.488Z,11.63
2019-05-12T17:29:10.987Z,17.43
2019-05-12T17:31:45.782Z,10.93
2019-05-12T17:34:19.223Z,12.27
2019-05-12T17:36:58.511Z,8.60
2019-05-12T17:39:29.309Z,8.90
2019-05-12T17:42:03.481Z,9.20
2019-05-12T17:44:38.894Z,6.07
2019-05-12T17:47:20.730Z,3.93
2019-05-12T17:49:45.755Z,3.03
2019-05-12T17:52:19.441Z,2.40
2019-05-12T17:54:57.850Z,2.23
2019-05-12T17:57:27.703Z,2.67
2019-05-12T18:00:08.551Z,4.07
2019-05-12T18:02:43.637Z,4.10
2019-05-12T18:05:16.033Z,25.33
2019-05-12T18:07:50.854Z,4.07
2019-05-12T18:10:23.863Z,5.60
2019-05-12T18:13:00.411Z,2.90
2019-05-12T18:15:37.832Z,2.90
2019-05-12T18:18:08.577Z,6.70
2019-05-12T18:20:43.942Z,13.20
2019-05-12T18:23:14.235Z,4.63
2019-05-12T18:25:48.224Z,4.87
2019-05-12T18:28:21.644Z,12.00
2019-05-12T18:30:55.887Z,5.73
2019-05-12T18:33:33.269Z,2.30
2019-05-12T18:36:01.064Z,2.77
2019-05-12T18:38:38.752Z,2.47
2019-05-12T18:41:06.975Z,2.63
2019-05-12T18:43:40.169Z,3.07
2019-05-12T18:46:13.995Z,2.50
2019-05-12T18:48:56.669Z,2.30
2019-05-12T18:51:26.446Z,2.80
2019-05-12T18:54:03.657Z,3.97
2019-05-12T18:56:36.718Z,3.60
2019-05-12T18:59:11.763Z,3.10
2019-05-12T19:01:44.750Z,2.87
2019-05-12T19:04:16.400Z,2.50
2019-05-12T19:06:49.009Z,2.37
2019-05-12T19:09:23.784Z,2.70
2019-05-12T19:11:58.322Z,2.87
2019-05-12T19:14:38.654Z,2.60
2019-05-12T19:17:07.401Z,2.70
2019-05-12T19:19:40.546Z,3.00
2019-05-12T19:22:14.142Z,3.27
2019-05-12T19:24:50.080Z,3.00
2019-05-12T19:27:24.080Z,3.00
2019-05-12T19:29:56.845Z,3.40
2019-05-12T19:32:29.451Z,2.70
2019-05-12T19:35:03.708Z,4.40
2019-05-12T19:37:36.398Z,5.37
2019-05-12T19:40:11.883Z,5.53
2019-05-12T19:42:46.328Z,13.00
2019-05-12T19:45:21.605Z,12.83
2019-05-12T19:47:53.609Z,14.80
2019-05-12T19:50:25.143Z,23.53
2019-05-12T19:52:56.894Z,27.60
2019-05-12T19:55:29.447Z,16.70
2019-05-12T19:58:10.957Z,17.17
2019-05-12T20:00:39.842Z,16.57
2019-05-12T20:03:13.677Z,14.20
2019-05-12T20:05:44.902Z,17.57
2019-05-12T20:08:16.867Z,15.87
2019-05-12T20:10:49.759Z,17.50
2019-05-12T20:13:23.915Z,18.83
2019-05-12T20:16:02.012Z,18.87
2019-05-12T20:18:49.147Z,19.00
2019-05-12T20:21:20.409Z,23.70
2019-05-12T20:24:03.861Z,28.47
2019-05-12T20:26:45.965Z,32.70
2019-05-12T20:29:24.512Z,22.73
2019-05-12T20:32:04.829Z,26.83
2019-05-12T20:34:48.072Z,37.33
2019-05-12T20:37:22.935Z,32.73
2019-05-12T20:40:04.382Z,29.57
2019-05-12T20:42:42.294Z,26.53
2019-05-12T20:45:13.729Z,26.13
2019-05-12T20:47:47.675Z,27.13
2019-05-12T20:50:32.769Z,25.23
2019-05-12T20:53:05.264Z,23.87
2019-05-12T20:55:41.524Z,26.90
2019-05-12T20:58:15.644Z,27.50
2019-05-12T21:00:50.107Z,23.67
2019-05-12T21:03:28.498Z,19.93
2019-05-12T21:06:02.207Z,17.77
2019-05-12T21:08:38.447Z,18.17
2019-05-12T21:11:15.186Z,23.13
2019-05-12T21:13:47.274Z,20.10
2019-05-12T21:16:30.854Z,17.00
2019-05-12T21:19:07.472Z,20.17
2019-05-12T21:21:38.220Z,19.53
2019-05-12T21:24:20.937Z,18.00
2019-05-12T21:27:03.690Z,21.03
2019-05-12T21:29:33.804Z,20.87
2019-05-12T21:32:12.304Z,21.73
2019-05-12T21:34:43.553Z,21.63
2019-05-12T21:37:14.913Z,21.67
2019-05-12T21:39:50.960Z,21.77
2019-05-12T21:42:20.525Z,20.97
2019-05-12T21:44:53.287Z,22.70
2019-05-12T21:47:26.648Z,21.27
2019-05-12T21:49:58.359Z,17.77
2019-05-12T21:52:37.142Z,18.83
2019-05-12T21:55:23.153Z,15.60
2019-05-12T21:58:01.471Z,15.20
2019-05-12T22:03:27.523Z,14.97
2019-05-12T22:06:06.871Z,12.10
2019-05-12T22:08:34.232Z,9.60
2019-05-12T22:11:11.513Z,9.40
2019-05-12T22:13:46.778Z,12.27
2019-05-12T22:16:15.172Z,8.73
2019-05-12T22:18:54.665Z,7.30
2019-05-12T22:21:23.852Z,5.43
2019-05-12T22:23:56.359Z,5.90
2019-05-12T22:26:30.761Z,7.43
2019-05-12T22:29:04.155Z,5.83
2019-05-12T22:31:38.553Z,9.07
2019-05-12T22:34:08.856Z,8.87
2019-05-12T22:36:45.232Z,8.17
2019-05-12T22:39:14.808Z,9.00
2019-05-12T22:41:46.558Z,7.00
2019-05-12T22:44:22.014Z,8.40
2019-05-12T22:46:54.093Z,9.13
2019-05-12T22:49:25.852Z,7.03
2019-05-12T22:52:02.692Z,11.87
2019-05-12T22:54:33.669Z,10.30
2019-05-12T22:57:06.686Z,6.17
2019-05-12T22:59:40.347Z,4.83
2019-05-12T23:02:16.037Z,4.73
2019-05-12T23:04:45.273Z,5.27
2019-05-12T23:07:19.093Z,3.97
2019-05-12T23:09:50.338Z,4.63
2019-05-12T23:12:23.666Z,3.87
2019-05-12T23:15:03.049Z,3.30
2019-05-12T23:17:29.680Z,3.50
2019-05-12T23:20:01.374Z,3.70
2019-05-12T23:22:35.099Z,3.37
2019-05-12T23:25:11.381Z,3.20
2019-05-12T23:27:44.229Z,3.43
2019-05-12T23:30:16.357Z,3.67
2019-05-12T23:32:51.463Z,3.23
2019-05-12T23:35:21.724Z,3.40
2019-05-12T23:37:53.714Z,3.47
2019-05-12T23:40:25.569Z,2.63
2019-05-12T23:42:57.321Z,3.80
2019-05-12T23:45:29.049Z,3.07
2019-05-12T23:48:03.458Z,3.50
2019-05-12T23:50:34.417Z,2.87
2019-05-12T23:53:06.256Z,3.60
2019-05-12T23:55:37.980Z,3.07
2019-05-12T23:58:09.731Z,3.50
